createdAt,value
2018-05-15T00:00:44.920Z,4.07
2018-05-15T00:03:12.078Z,4.87
2018-05-15T00:05:38.478Z,4.30
2018-05-15T00:08:05.640Z,3.83
2018-05-15T00:10:32.805Z,3.70
2018-05-15T00:12:59.255Z,3.67
2018-05-15T00:15:25.661Z,3.43
2018-05-15T00:17:52.858Z,3.90
2018-05-15T00:20:19.271Z,3.73
2018-05-15T00:22:46.392Z,4.27
2018-05-15T00:25:13.547Z,3.60
2018-05-15T00:27:40.032Z,3.63
2018-05-15T00:30:06.411Z,3.90
2018-05-15T00:32:33.527Z,3.90
2018-05-15T00:34:59.945Z,3.93
2018-05-15T00:37:26.352Z,4.20
2018-05-15T00:39:52.742Z,3.87
2018-05-15T00:42:19.140Z,4.27
2018-05-15T00:44:45.546Z,4.00
2018-05-15T00:47:11.981Z,4.10
2018-05-15T00:49:38.409Z,3.80
2018-05-15T00:52:04.814Z,3.77
2018-05-15T00:54:32.714Z,3.70
2018-05-15T00:56:59.145Z,3.93
2018-05-15T00:59:25.558Z,3.40
2018-05-15T01:01:52.748Z,4.00
2018-05-15T01:04:19.884Z,3.70
2018-05-15T01:06:46.286Z,3.80
2018-05-15T01:09:12.672Z,3.37
2018-05-15T01:11:39.099Z,4.20
2018-05-15T01:14:05.534Z,3.53
2018-05-15T01:16:31.945Z,3.90
2018-05-15T01:18:58.445Z,3.77
2018-05-15T01:21:24.863Z,4.17
2018-05-15T01:23:52.127Z,3.50
2018-05-15T01:26:18.553Z,3.93
2018-05-15T01:28:45.005Z,3.90
2018-05-15T01:31:11.433Z,4.17
2018-05-15T01:33:38.593Z,3.80
2018-05-15T01:36:05.024Z,3.83
2018-05-15T01:38:32.217Z,4.03
2018-05-15T01:40:58.623Z,4.10
2018-05-15T01:43:25.041Z,3.50
2018-05-15T01:45:51.412Z,4.10
2018-05-15T01:48:18.561Z,4.17
2018-05-15T01:50:44.957Z,3.53
2018-05-15T01:53:12.100Z,4.23
2018-05-15T01:55:39.279Z,4.00
2018-05-15T01:58:05.680Z,4.33
2018-05-15T02:00:32.101Z,4.10
2018-05-15T02:02:58.481Z,4.03
2018-05-15T02:05:24.871Z,4.67
2018-05-15T02:07:51.264Z,4.20
2018-05-15T02:10:17.705Z,4.00
2018-05-15T02:12:44.121Z,4.10
2018-05-15T02:15:10.507Z,4.30
2018-05-15T02:17:36.960Z,3.80
2018-05-15T02:20:04.118Z,4.40
2018-05-15T02:22:31.248Z,4.10
2018-05-15T02:24:58.433Z,4.20
2018-05-15T02:27:25.555Z,4.33
2018-05-15T02:29:52.753Z,3.93
2018-05-15T02:32:19.176Z,4.37
2018-05-15T02:34:45.564Z,4.03
2018-05-15T02:37:11.974Z,3.83
2018-05-15T02:39:38.424Z,4.00
2018-05-15T02:42:05.040Z,3.70
2018-05-15T02:44:31.485Z,4.13
2018-05-15T02:46:57.943Z,4.20
2018-05-15T02:49:24.328Z,4.20
2018-05-15T02:51:50.716Z,3.70
2018-05-15T02:54:17.168Z,4.10
2018-05-15T02:56:43.560Z,4.00
2018-05-15T02:59:09.960Z,4.20
2018-05-15T03:01:36.475Z,4.10
2018-05-15T03:04:02.931Z,3.53
2018-05-15T03:06:29.331Z,4.43
2018-05-15T03:08:55.827Z,4.50
2018-05-15T03:11:22.225Z,4.70
2018-05-15T03:13:48.612Z,4.90
2018-05-15T03:16:15.033Z,4.03
2018-05-15T03:18:42.160Z,4.37
2018-05-15T03:21:08.548Z,4.20
2018-05-15T03:23:34.983Z,3.93
2018-05-15T03:26:01.416Z,4.30
2018-05-15T03:28:27.811Z,4.20
2018-05-15T03:30:56.164Z,3.90
2018-05-15T03:33:22.583Z,4.77
2018-05-15T03:35:49.041Z,4.80
2018-05-15T03:38:15.461Z,4.00
2018-05-15T03:40:42.763Z,3.13
2018-05-15T03:43:09.905Z,4.13
2018-05-15T03:45:36.355Z,4.43
2018-05-15T03:48:02.780Z,4.13
2018-05-15T03:50:29.902Z,3.90
2018-05-15T03:52:57.073Z,4.53
2018-05-15T03:55:23.482Z,3.80
2018-05-15T03:57:49.919Z,4.10
2018-05-15T04:00:29.583Z,4.40
2018-05-15T04:03:08.291Z,4.10
2018-05-15T04:05:47.112Z,4.23
2018-05-15T04:08:13.552Z,4.27
2018-05-15T04:10:40.840Z,4.40
2018-05-15T04:13:08.105Z,4.60
2018-05-15T04:15:34.502Z,3.67
2018-05-15T04:18:00.897Z,4.50
2018-05-15T04:20:28.364Z,4.30
2018-05-15T04:22:54.942Z,4.23
2018-05-15T04:25:21.356Z,3.70
2018-05-15T04:27:47.776Z,4.10
2018-05-15T04:30:14.253Z,4.53
2018-05-15T04:32:40.668Z,4.27
2018-05-15T04:35:07.171Z,4.30
2018-05-15T04:37:33.527Z,4.80
2018-05-15T04:39:59.940Z,3.93
2018-05-15T04:42:27.205Z,4.37
2018-05-15T04:44:53.608Z,4.50
2018-05-15T04:47:20.061Z,4.17
2018-05-15T04:49:46.460Z,4.40
2018-05-15T04:52:12.888Z,5.00
2018-05-15T04:54:39.326Z,5.20
2018-05-15T04:57:05.724Z,4.60
2018-05-15T04:59:32.148Z,4.30
2018-05-15T05:01:58.592Z,4.37
2018-05-15T05:04:24.991Z,5.20
2018-05-15T05:06:51.393Z,3.93
2018-05-15T05:09:17.777Z,4.00
2018-05-15T05:11:44.282Z,4.53
2018-05-15T05:14:10.638Z,4.40
2018-05-15T05:16:37.049Z,4.93
2018-05-15T05:19:03.892Z,4.93
2018-05-15T05:21:30.396Z,4.43
2018-05-15T05:23:56.780Z,4.60
2018-05-15T05:26:23.214Z,4.90
2018-05-15T05:28:50.448Z,4.47
2018-05-15T05:31:17.614Z,4.30
2018-05-15T05:33:44.089Z,4.60
2018-05-15T05:36:10.528Z,4.80
2018-05-15T05:38:36.971Z,4.93
2018-05-15T05:41:03.369Z,4.70
2018-05-15T05:43:29.777Z,4.13
2018-05-15T05:45:56.171Z,4.70
2018-05-15T05:48:22.595Z,4.17
2018-05-15T05:50:48.986Z,4.73
2018-05-15T05:53:15.396Z,4.87
2018-05-15T05:55:42.572Z,4.60
2018-05-15T05:58:08.995Z,4.80
2018-05-15T06:00:36.196Z,4.30
2018-05-15T06:03:04.144Z,3.83
2018-05-15T06:05:31.640Z,4.70
2018-05-15T06:07:58.056Z,4.83
2018-05-15T06:10:24.479Z,4.40
2018-05-15T06:12:50.888Z,5.17
2018-05-15T06:15:17.303Z,4.60
2018-05-15T06:17:43.780Z,4.77
2018-05-15T06:20:10.185Z,4.37
2018-05-15T06:22:37.299Z,4.50
2018-05-15T06:25:04.485Z,4.83
2018-05-15T06:27:31.644Z,4.40
2018-05-15T06:29:58.103Z,5.00
2018-05-15T06:32:24.898Z,4.80
2018-05-15T06:34:52.019Z,4.53
2018-05-15T06:37:19.221Z,4.10
2018-05-15T06:39:45.677Z,4.07
2018-05-15T06:42:12.064Z,4.07
2018-05-15T06:44:39.295Z,4.00
2018-05-15T06:47:05.718Z,4.87
2018-05-15T06:49:32.112Z,5.20
2018-05-15T06:51:58.518Z,4.70
2018-05-15T06:54:25.762Z,4.20
2018-05-15T06:56:52.908Z,5.07
2018-05-15T06:59:20.032Z,4.37
2018-05-15T07:01:47.370Z,4.53
2018-05-15T07:04:13.754Z,5.17
2018-05-15T07:06:40.180Z,4.20
2018-05-15T07:09:07.441Z,4.43
2018-05-15T07:11:33.837Z,4.80
2018-05-15T07:14:00.294Z,4.07
2018-05-15T07:16:26.691Z,3.67
2018-05-15T07:18:53.089Z,4.67
2018-05-15T07:21:19.496Z,4.10
2018-05-15T07:23:47.511Z,4.43
2018-05-15T07:26:13.952Z,4.27
2018-05-15T07:28:40.423Z,4.67
2018-05-15T07:31:07.598Z,3.97
2018-05-15T07:33:34.076Z,4.00
2018-05-15T07:36:00.507Z,4.23
2018-05-15T07:38:26.987Z,3.90
2018-05-15T07:40:54.947Z,3.77
2018-05-15T07:43:22.126Z,3.70
2018-05-15T07:45:48.677Z,3.93
2018-05-15T07:48:15.144Z,3.77
2018-05-15T07:50:41.571Z,3.57
2018-05-15T07:53:08.101Z,3.23
2018-05-15T07:55:34.521Z,3.47
2018-05-15T07:58:00.954Z,3.43
2018-05-15T08:00:27.405Z,3.70
2018-05-15T08:02:53.810Z,4.20
2018-05-15T08:05:20.256Z,3.37
2018-05-15T08:07:46.756Z,3.40
2018-05-15T08:10:13.265Z,3.77
2018-05-15T08:12:39.723Z,4.07
2018-05-15T08:15:06.191Z,3.63
2018-05-15T08:17:32.634Z,4.30
2018-05-15T08:19:59.087Z,3.97
2018-05-15T08:22:25.618Z,3.93
2018-05-15T08:24:52.002Z,3.77
2018-05-15T08:27:18.468Z,4.40
2018-05-15T08:29:44.920Z,3.93
2018-05-15T08:32:11.345Z,4.07
2018-05-15T08:34:37.808Z,3.73
2018-05-15T08:37:05.020Z,4.70
2018-05-15T08:39:31.454Z,3.97
2018-05-15T08:41:57.915Z,4.33
2018-05-15T08:44:25.197Z,3.80
2018-05-15T08:46:51.643Z,3.20
2018-05-15T08:49:18.079Z,4.10
2018-05-15T08:51:44.597Z,3.57
2018-05-15T08:54:11.736Z,4.43
2018-05-15T08:56:38.886Z,4.00
2018-05-15T08:59:06.818Z,3.70
2018-05-15T09:01:33.254Z,3.90
2018-05-15T09:03:59.708Z,4.80
2018-05-15T09:06:26.238Z,4.30
2018-05-15T09:08:52.748Z,4.90
2018-05-15T09:11:19.252Z,5.30
2018-05-15T09:13:45.768Z,5.00
2018-05-15T09:16:12.221Z,5.20
2018-05-15T09:18:38.696Z,5.10
2018-05-15T09:21:05.167Z,4.57
2018-05-15T09:23:31.560Z,6.20
2018-05-15T09:25:57.978Z,4.90
2018-05-15T09:28:24.416Z,4.07
2018-05-15T09:30:50.859Z,4.50
2018-05-15T09:33:17.340Z,4.13
2018-05-15T09:35:43.800Z,4.00
2018-05-15T09:38:10.241Z,4.33
2018-05-15T09:40:37.473Z,4.83
2018-05-15T09:43:04.037Z,4.97
2018-05-15T09:45:30.463Z,4.80
2018-05-15T09:47:56.905Z,4.63
2018-05-15T09:50:23.407Z,4.70
2018-05-15T09:52:49.843Z,3.83
2018-05-15T09:55:16.292Z,4.37
2018-05-15T09:57:42.780Z,3.97
2018-05-15T10:00:09.240Z,4.07
2018-05-15T10:02:35.690Z,4.53
2018-05-15T10:05:02.208Z,4.23
2018-05-15T10:07:28.654Z,4.10
2018-05-15T10:09:55.170Z,3.90
2018-05-15T10:12:21.713Z,2.97
2018-05-15T10:14:48.159Z,4.10
2018-05-15T10:17:15.353Z,3.17
2018-05-15T10:19:41.825Z,3.60
2018-05-15T10:22:09.021Z,3.40
2018-05-15T10:24:35.466Z,3.50
2018-05-15T10:27:02.043Z,3.00
2018-05-15T10:29:28.477Z,3.27
2018-05-15T10:31:54.897Z,3.37
2018-05-15T10:34:22.072Z,3.57
2018-05-15T10:36:48.556Z,3.40
2018-05-15T10:39:14.980Z,3.67
2018-05-15T10:41:41.468Z,3.70
2018-05-15T10:44:07.927Z,3.17
2018-05-15T10:46:34.415Z,3.47
2018-05-15T10:49:01.661Z,3.73
2018-05-15T10:51:28.982Z,3.63
2018-05-15T10:53:55.409Z,4.00
2018-05-15T10:56:22.009Z,3.73
2018-05-15T10:58:48.521Z,3.90
2018-05-15T11:01:15.119Z,2.90
2018-05-15T11:03:48.544Z,3.57
2018-05-15T11:06:15.022Z,3.93
2018-05-15T11:08:41.455Z,4.40
2018-05-15T11:11:07.939Z,3.67
2018-05-15T11:13:34.415Z,4.70
2018-05-15T11:16:00.883Z,3.20
2018-05-15T11:18:47.127Z,4.17
2018-05-15T11:21:26.096Z,3.83
2018-05-15T11:24:04.664Z,3.50
2018-05-15T11:26:31.163Z,4.07
2018-05-15T11:28:57.621Z,3.93
2018-05-15T11:31:24.110Z,3.50
2018-05-15T11:33:51.138Z,3.87
2018-05-15T11:36:18.892Z,4.10
2018-05-15T11:38:46.759Z,3.90
2018-05-15T11:41:13.808Z,3.73
2018-05-15T11:43:40.856Z,3.67
2018-05-15T11:46:07.907Z,3.70
2018-05-15T11:48:35.618Z,4.23
2018-05-15T11:51:03.319Z,4.30
2018-05-15T11:53:29.968Z,3.70
2018-05-15T11:55:57.881Z,4.00
2018-05-15T11:58:24.994Z,4.00
2018-05-15T12:00:52.037Z,3.90
2018-05-15T12:03:19.079Z,3.87
2018-05-15T12:05:46.741Z,3.83
2018-05-15T12:08:14.726Z,4.07
2018-05-15T12:10:41.834Z,3.90
2018-05-15T12:13:08.806Z,4.13
2018-05-15T12:15:36.573Z,4.00
2018-05-15T12:18:03.657Z,4.83
2018-05-15T12:20:31.385Z,3.50
2018-05-15T12:22:58.430Z,3.63
2018-05-15T12:25:25.579Z,3.87
2018-05-15T12:27:52.731Z,3.47
2018-05-15T12:30:20.802Z,4.17
2018-05-15T12:32:48.675Z,4.13
2018-05-15T12:35:16.331Z,3.80
2018-05-15T12:37:43.383Z,3.67
2018-05-15T12:40:11.043Z,3.47
2018-05-15T12:42:37.985Z,5.03
2018-05-15T12:45:04.931Z,4.20
2018-05-15T12:47:32.141Z,3.90
2018-05-15T12:49:59.231Z,3.67
2018-05-15T12:52:26.336Z,4.37
2018-05-15T12:54:53.428Z,3.60
2018-05-15T12:57:20.377Z,3.63
2018-05-15T12:59:47.320Z,3.70
2018-05-15T13:02:14.264Z,3.90
2018-05-15T13:04:41.926Z,3.60
2018-05-15T13:07:09.587Z,4.30
2018-05-15T13:09:36.534Z,4.63
2018-05-15T13:12:04.209Z,4.00
2018-05-15T13:14:31.242Z,3.70
2018-05-15T13:16:58.906Z,4.37
2018-05-15T13:19:26.566Z,3.73
2018-05-15T13:21:53.512Z,4.53
2018-05-15T13:24:20.583Z,3.80
2018-05-15T13:26:47.709Z,4.10
2018-05-15T13:29:14.756Z,3.93
2018-05-15T13:31:42.419Z,4.03
2018-05-15T13:34:10.081Z,4.10
2018-05-15T13:36:37.599Z,4.10
2018-05-15T13:39:05.303Z,3.80
2018-05-15T13:41:32.965Z,3.60
2018-05-15T13:43:59.897Z,4.97
2018-05-15T13:46:26.753Z,4.40
2018-05-15T13:48:53.601Z,3.77
2018-05-15T13:51:20.534Z,3.87
2018-05-15T13:53:47.486Z,4.10
2018-05-15T13:56:14.431Z,4.50
2018-05-15T13:58:41.494Z,4.20
2018-05-15T14:01:08.424Z,3.63
2018-05-15T14:03:35.370Z,4.10
2018-05-15T14:06:02.316Z,4.00
2018-05-15T14:08:29.263Z,4.30
2018-05-15T14:10:56.212Z,3.50
2018-05-15T14:13:23.152Z,4.00
2018-05-15T14:15:50.100Z,4.50
2018-05-15T14:18:17.145Z,4.03
2018-05-15T14:20:44.192Z,4.10
2018-05-15T14:23:11.968Z,4.60
2018-05-15T14:25:39.938Z,4.00
2018-05-15T14:28:07.897Z,4.40
2018-05-15T14:30:35.668Z,4.10
2018-05-15T14:33:02.710Z,4.40
2018-05-15T14:35:29.863Z,4.10
2018-05-15T14:37:57.723Z,3.60
2018-05-15T14:40:24.672Z,3.57
2018-05-15T14:43:19.165Z,3.37
2018-05-15T14:45:45.583Z,3.17
2018-05-15T14:48:11.948Z,3.87
2018-05-15T14:50:50.720Z,3.53
2018-05-15T14:53:17.869Z,3.40
2018-05-15T14:55:44.326Z,3.77
2018-05-15T14:58:10.788Z,4.17
2018-05-15T15:00:37.210Z,3.80
2018-05-15T15:03:03.630Z,4.30
2018-05-15T15:05:30.099Z,4.90
2018-05-15T15:07:56.470Z,3.67
2018-05-15T15:10:22.841Z,3.70
2018-05-15T15:12:49.239Z,3.50
2018-05-15T15:15:15.594Z,3.50
2018-05-15T15:17:41.932Z,3.40
2018-05-15T15:20:09.076Z,3.37
2018-05-15T15:22:36.174Z,3.87
2018-05-15T15:25:02.558Z,5.27
2018-05-15T15:27:29.710Z,3.83
2018-05-15T15:29:56.096Z,4.30
2018-05-15T15:32:22.578Z,4.93
2018-05-15T15:34:49.688Z,4.50
2018-05-15T15:37:16.047Z,4.00
2018-05-15T15:39:42.417Z,4.20
2018-05-15T15:42:08.790Z,5.23
2018-05-15T15:44:35.139Z,4.20
2018-05-15T15:47:02.312Z,4.17
2018-05-15T15:49:28.690Z,4.57
2018-05-15T15:51:55.068Z,4.77
2018-05-15T15:54:22.204Z,4.17
2018-05-15T15:56:48.632Z,4.43
2018-05-15T15:59:15.049Z,5.20
2018-05-15T16:01:41.495Z,4.50
2018-05-15T16:04:08.054Z,5.10
2018-05-15T16:06:34.301Z,4.60
2018-05-15T16:09:00.633Z,4.70
2018-05-15T16:11:27.041Z,4.70
2018-05-15T16:13:54.157Z,5.30
2018-05-15T16:16:20.568Z,4.43
2018-05-15T16:18:46.846Z,4.10
2018-05-15T16:21:13.938Z,5.10
2018-05-15T16:23:40.356Z,5.07
2018-05-15T16:26:06.777Z,4.50
2018-05-15T16:28:33.914Z,5.03
2018-05-15T16:31:00.238Z,4.30
2018-05-15T16:33:27.378Z,4.57
2018-05-15T16:35:53.702Z,4.67
2018-05-15T16:38:20.609Z,5.00
2018-05-15T16:40:47.000Z,4.90
2018-05-15T16:43:13.332Z,4.80
2018-05-15T16:45:40.418Z,4.10
2018-05-15T16:48:06.838Z,3.90
2018-05-15T16:50:33.210Z,4.70
2018-05-15T16:52:59.546Z,3.83
2018-05-15T16:55:25.956Z,4.73
2018-05-15T16:57:52.297Z,4.43
2018-05-15T17:00:18.645Z,3.97
2018-05-15T17:02:45.139Z,4.47
2018-05-15T17:05:11.539Z,4.13
2018-05-15T17:07:38.652Z,4.13
2018-05-15T17:10:05.029Z,4.60
2018-05-15T17:12:32.127Z,4.47
2018-05-15T17:14:58.489Z,4.23
2018-05-15T17:17:24.932Z,4.67
2018-05-15T17:19:51.273Z,4.13
2018-05-15T17:22:18.358Z,4.00
2018-05-15T17:24:44.734Z,5.00
2018-05-15T17:27:11.129Z,3.63
2018-05-15T17:29:37.469Z,4.07
2018-05-15T17:32:04.184Z,5.17
2018-05-15T17:34:30.558Z,4.43
2018-05-15T17:36:56.908Z,4.70
2018-05-15T17:39:24.092Z,6.40
2018-05-15T17:41:50.772Z,4.30
2018-05-15T17:44:17.232Z,5.00
2018-05-15T17:46:44.341Z,5.77
2018-05-15T17:49:10.742Z,4.30
2018-05-15T17:51:37.086Z,4.40
2018-05-15T17:54:03.461Z,4.10
2018-05-15T17:56:29.893Z,6.10
2018-05-15T17:58:56.254Z,3.60
2018-05-15T18:01:24.121Z,3.83
2018-05-15T18:03:50.502Z,3.60
2018-05-15T18:06:16.893Z,3.70
2018-05-15T18:08:43.277Z,3.77
2018-05-15T18:11:09.690Z,3.90
2018-05-15T18:13:36.090Z,3.30
2018-05-15T18:16:02.546Z,4.07
2018-05-15T18:18:28.937Z,2.87
2018-05-15T18:20:55.299Z,3.30
2018-05-15T18:23:21.729Z,3.10
2018-05-15T18:25:48.099Z,2.73
2018-05-15T18:28:14.442Z,3.33
2018-05-15T18:30:40.849Z,2.80
2018-05-15T18:33:07.204Z,2.83
2018-05-15T18:35:33.575Z,3.33
2018-05-15T18:37:59.948Z,3.40
2018-05-15T18:40:26.657Z,3.40
2018-05-15T18:42:53.017Z,3.30
2018-05-15T18:45:19.439Z,3.47
2018-05-15T18:47:45.730Z,4.07
2018-05-15T18:50:12.814Z,4.60
2018-05-15T18:52:39.244Z,4.13
2018-05-15T18:55:05.608Z,4.10
2018-05-15T18:57:31.973Z,4.17
2018-05-15T18:59:59.121Z,6.07
2018-05-15T19:02:26.224Z,4.17
2018-05-15T19:04:52.611Z,4.97
2018-05-15T19:07:19.267Z,5.43
2018-05-15T19:09:45.640Z,5.50
2018-05-15T19:12:11.991Z,5.70
2018-05-15T19:14:38.351Z,5.50
2018-05-15T19:17:05.440Z,4.50
2018-05-15T19:19:31.864Z,5.20
2018-05-15T19:21:58.950Z,5.00
2018-05-15T19:24:25.330Z,4.50
2018-05-15T19:26:51.768Z,4.20
2018-05-15T19:29:18.167Z,4.37
2018-05-15T19:31:45.294Z,4.03
2018-05-15T19:34:17.837Z,4.60
2018-05-15T19:36:51.081Z,4.50
2018-05-15T19:39:17.639Z,4.60
2018-05-15T19:41:44.093Z,5.60
2018-05-15T19:44:10.465Z,4.40
2018-05-15T19:46:39.046Z,5.37
2018-05-15T19:49:06.179Z,5.30
2018-05-15T19:51:32.539Z,4.87
2018-05-15T19:54:00.405Z,5.33
2018-05-15T19:56:26.783Z,4.67
2018-05-15T19:58:53.163Z,4.80
2018-05-15T20:01:20.364Z,4.97
2018-05-15T20:03:46.736Z,5.40
2018-05-15T20:06:13.084Z,5.70
2018-05-15T20:08:39.476Z,4.53
2018-05-15T20:11:05.871Z,4.33
2018-05-15T20:13:32.249Z,5.83
2018-05-15T20:15:58.612Z,5.53
2018-05-15T20:18:24.946Z,4.47
2018-05-15T20:20:51.276Z,4.80
2018-05-15T20:23:17.651Z,5.33
2018-05-15T20:25:44.029Z,4.60
2018-05-15T20:28:10.418Z,4.90
2018-05-15T20:30:36.794Z,4.93
2018-05-15T20:33:03.138Z,5.00
2018-05-15T20:35:29.502Z,4.73
2018-05-15T20:37:56.625Z,5.13
2018-05-15T20:40:23.729Z,4.80
2018-05-15T20:42:50.209Z,4.70
2018-05-15T20:45:17.339Z,5.30
2018-05-15T20:47:43.683Z,5.47
2018-05-15T20:50:10.054Z,5.67
2018-05-15T20:52:36.461Z,4.43
2018-05-15T20:55:02.857Z,4.90
2018-05-15T20:57:29.980Z,5.00
2018-05-15T20:59:56.361Z,5.00
2018-05-15T21:02:23.472Z,6.30
2018-05-15T21:04:49.833Z,5.60
2018-05-15T21:07:16.290Z,6.00
2018-05-15T21:09:43.394Z,6.33
2018-05-15T21:12:09.750Z,6.90
2018-05-15T21:14:38.982Z,7.00
2018-05-15T21:17:05.326Z,7.10
2018-05-15T21:19:31.654Z,7.33
2018-05-15T21:21:58.109Z,6.97
2018-05-15T21:24:24.425Z,6.37
2018-05-15T21:26:50.777Z,7.13
2018-05-15T21:29:17.173Z,7.80
2018-05-15T21:31:43.552Z,7.10
2018-05-15T21:34:09.944Z,7.77
2018-05-15T21:36:36.341Z,7.90
2018-05-15T21:39:02.750Z,7.27
2018-05-15T21:41:29.104Z,6.67
2018-05-15T21:43:55.514Z,7.10
2018-05-15T21:46:22.650Z,7.53
2018-05-15T21:48:49.017Z,6.40
2018-05-15T21:51:16.141Z,5.70
2018-05-15T21:53:42.507Z,6.10
2018-05-15T21:56:08.848Z,6.00
2018-05-15T21:58:35.953Z,6.70
2018-05-15T22:01:02.339Z,5.63
2018-05-15T22:03:28.786Z,5.80
2018-05-15T22:05:55.090Z,6.03
2018-05-15T22:08:22.198Z,5.70
2018-05-15T22:10:48.611Z,5.43
2018-05-15T22:13:27.763Z,5.90
2018-05-15T22:16:06.636Z,6.33
2018-05-15T22:18:45.302Z,4.97
2018-05-15T22:21:23.855Z,5.10
2018-05-15T22:23:50.769Z,5.93
2018-05-15T22:26:17.119Z,4.97
2018-05-15T22:28:44.276Z,4.60
2018-05-15T22:31:10.653Z,4.63
2018-05-15T22:33:36.993Z,4.40
2018-05-15T22:36:03.386Z,4.20
2018-05-15T22:38:30.570Z,5.47
2018-05-15T22:40:56.939Z,4.57
2018-05-15T22:43:23.273Z,4.10
2018-05-15T22:45:49.678Z,4.43
2018-05-15T22:48:15.992Z,4.50
2018-05-15T22:50:42.343Z,4.47
2018-05-15T22:53:08.709Z,4.70
2018-05-15T22:55:35.073Z,5.07
2018-05-15T22:58:01.438Z,5.50
2018-05-15T23:00:27.826Z,4.73
2018-05-15T23:02:54.901Z,4.47
2018-05-15T23:05:21.267Z,5.20
2018-05-15T23:07:47.699Z,5.10
2018-05-15T23:10:14.054Z,5.00
2018-05-15T23:12:41.177Z,4.70
2018-05-15T23:15:07.553Z,4.10
2018-05-15T23:17:34.607Z,4.10
2018-05-15T23:20:01.685Z,4.30
2018-05-15T23:22:40.505Z,5.23
2018-05-15T23:25:06.817Z,4.80
2018-05-15T23:27:33.156Z,4.63
2018-05-15T23:30:00.248Z,4.00
2018-05-15T23:32:28.055Z,5.20
2018-05-15T23:34:54.398Z,5.37
2018-05-15T23:37:20.799Z,4.10
2018-05-15T23:39:47.929Z,4.10
2018-05-15T23:42:14.279Z,4.63
2018-05-15T23:44:41.259Z,5.20
2018-05-15T23:47:07.638Z,4.87
2018-05-15T23:49:33.973Z,4.40
2018-05-15T23:52:01.093Z,4.60
2018-05-15T23:54:28.241Z,4.03
2018-05-15T23:56:54.600Z,3.67
2018-05-15T23:59:20.985Z,4.70
